Time;durP1;ratioP1;P1;durP2;ratioP2;P2;SDS_P1;SDS_P2;PMS_P1;PMS_P2;Temp;Humidity;BMP_temperature;BMP_pressure;BME280_temperature;BME280_humidity;BME280_pressure;Samples;Min_cycle;Max_cycle;Signal;HPM_P1;HPM_P2
2022/11/14 00:00:24;;;;;;;9.93;7.95;;;;;;;18.61;49.93;101699.88;5084538;28;20461;-59
2022/11/14 00:02:49;;;;;;;8.98;7.57;;;;;;;18.61;50.39;101686.41;5084516;28;20436;-61
2022/11/14 00:05:15;;;;;;;9.35;7.00;;;;;;;18.60;50.32;101693.59;5084455;28;20029;-61
2022/11/14 00:07:40;;;;;;;9.48;7.43;;;;;;;18.61;50.24;101681.00;5082634;28;20193;-62
2022/11/14 00:10:06;;;;;;;10.15;7.53;;;;;;;18.59;50.01;101678.44;5084338;28;20535;-61
2022/11/14 00:12:31;;;;;;;10.18;7.22;;;;;;;18.53;50.15;101670.13;5084106;28;20025;-61
2022/11/14 00:14:56;;;;;;;9.70;6.70;;;;;;;18.58;50.00;101675.91;5085440;28;20036;-61
2022/11/14 00:17:21;;;;;;;10.10;7.60;;;;;;;18.49;50.24;101664.19;5103870;28;20024;-61
2022/11/14 00:19:47;;;;;;;10.05;8.00;;;;;;;18.57;50.05;101671.53;5070950;28;20057;-61
2022/11/14 00:22:12;;;;;;;9.38;6.72;;;;;;;18.55;50.33;101668.13;5076365;28;20027;-61
2022/11/14 00:24:37;;;;;;;9.65;7.75;;;;;;;18.51;50.27;101653.25;5046725;28;20080;-61
2022/11/14 00:27:03;;;;;;;10.60;7.70;;;;;;;18.54;50.05;101671.81;5043479;28;20108;-61
2022/11/14 00:29:28;;;;;;;9.00;7.30;;;;;;;18.54;50.38;101661.06;5044125;28;20017;-62
2022/11/14 00:31:53;;;;;;;9.25;7.78;;;;;;;18.48;49.93;101655.25;5057277;28;20044;-61
2022/11/14 00:34:18;;;;;;;8.95;7.38;;;;;;;18.51;50.25;101664.03;5064047;28;20029;-61
2022/11/14 00:36:43;;;;;;;9.10;7.50;;;;;;;18.51;50.21;101656.78;5063735;28;20029;-61
2022/11/14 00:39:13;;;;;;;7.85;6.68;;;;;;;18.51;50.10;101650.56;5062341;28;20456;-62
2022/11/14 00:41:38;;;;;;;;;;;;;;;18.50;50.26;101649.72;5043764;28;20052;-60
2022/11/14 00:44:04;;;;;;;9.43;7.30;;;;;;;18.39;50.01;101629.22;5043971;28;19905;-62
2022/11/14 00:46:29;;;;;;;8.65;7.20;;;;;;;18.47;50.11;101641.94;5043573;28;20061;-62
2022/11/14 00:48:54;;;;;;;8.38;6.82;;;;;;;18.46;50.20;101651.00;5043564;28;20080;-61
2022/11/14 00:51:19;;;;;;;8.68;7.45;;;;;;;18.44;49.91;101634.16;5043542;28;20039;-61
2022/11/14 00:53:45;;;;;;;10.15;7.72;;;;;;;18.44;49.93;101637.72;5043574;28;20025;-62
2022/11/14 00:56:10;;;;;;;9.70;7.70;;;;;;;18.43;49.94;101630.59;5043484;28;20031;-61
2022/11/14 00:58:35;;;;;;;9.13;6.90;;;;;;;18.42;50.02;101626.22;5043455;28;20449;-61
2022/11/14 01:01:00;;;;;;;8.15;7.18;;;;;;;18.40;50.13;101620.16;5050631;28;20028;-61
2022/11/14 01:03:26;;;;;;;9.52;7.38;;;;;;;18.40;50.31;101620.16;5063339;28;20051;-60
2022/11/14 01:05:51;;;;;;;9.02;6.80;;;;;;;18.40;50.17;101609.38;5062919;28;20081;-61
2022/11/14 01:08:17;;;;;;;9.98;7.88;;;;;;;18.39;50.08;101605.00;5063495;28;20174;-61
2022/11/14 01:10:45;;;;;;;8.15;7.28;;;;;;;18.38;50.04;101597.88;5068187;28;20384;-61
2022/11/14 01:13:12;;;;;;;8.55;7.63;;;;;;;18.37;50.31;101598.91;5082945;28;20016;-62
2022/11/14 01:15:41;;;;;;;9.45;7.20;;;;;;;18.37;50.02;101595.34;5083165;28;20040;-61
2022/11/14 01:18:09;;;;;;;9.23;7.00;;;;;;;18.26;49.81;101585.63;5083371;28;20028;-61
2022/11/14 01:20:38;;;;;;;10.68;7.38;;;;;;;18.35;49.86;101595.53;5092134;28;20088;-61
2022/11/14 01:23:03;;;;;;;8.95;7.55;;;;;;;18.35;49.84;101595.53;5086523;28;20016;-60
2022/11/14 01:25:28;;;;;;;10.00;7.57;;;;;;;18.34;49.83;101591.09;5083299;28;20054;-61
2022/11/14 01:27:53;;;;;;;9.48;7.45;;;;;;;18.33;49.77;101585.88;5082652;28;20070;-61
2022/11/14 01:30:19;;;;;;;9.40;7.43;;;;;;;18.34;50.07;101598.34;5083333;28;20076;-61
2022/11/14 01:32:44;;;;;;;9.65;6.88;;;;;;;18.33;50.07;101585.88;5082934;28;20040;-62
2022/11/14 01:35:09;;;;;;;9.88;6.97;;;;;;;18.31;49.79;101580.66;5083091;28;20105;-59
2022/11/14 01:37:34;;;;;;;8.50;7.10;;;;;;;18.31;50.04;101574.41;5082906;28;20032;-61
2022/11/14 01:39:59;;;;;;;9.38;7.93;;;;;;;18.20;50.23;101553.91;5082976;28;20131;-61
2022/11/14 01:42:25;;;;;;;8.90;7.30;;;;;;;18.30;50.02;101570.03;5082606;28;20059;-61
2022/11/14 01:44:52;;;;;;;8.25;7.07;;;;;;;18.29;49.76;101569.19;5083348;28;20198;-61
2022/11/14 01:47:29;;;;;;;8.15;7.35;;;;;;;18.27;49.79;101552.34;5082393;28;20032;-61
2022/11/14 01:49:57;;;;;;;8.68;7.40;;;;;;;18.25;50.12;101557.00;5083200;28;20017;-61
2022/11/14 01:52:44;;;;;;;9.25;7.38;;;;;;;18.27;49.92;101562.25;5082762;28;20051;-61
2022/11/14 01:55:10;;;;;;;7.97;6.60;;;;;;;18.15;49.99;101538.22;5047994;28;20096;-61
2022/11/14 01:57:38;;;;;;;9.02;7.20;;;;;;;18.24;49.79;101553.47;5082211;28;20024;-61
2022/11/14 02:00:10;;;;;;;10.20;7.18;;;;;;;18.23;50.01;101541.03;5065068;28;20020;-61
2022/11/14 02:02:36;;;;;;;7.85;6.80;;;;;;;18.22;49.69;101538.44;5082656;28;20059;-61
2022/11/14 02:05:05;;;;;;;9.15;7.00;;;;;;;18.21;49.84;101534.06;5083238;28;20052;-61
2022/11/14 02:07:33;;;;;;;7.57;6.40;;;;;;;18.22;49.91;101525.88;5082526;28;20607;-61
2022/11/14 02:10:01;;;;;;;9.07;7.28;;;;;;;18.21;49.73;101528.69;5065045;28;20024;-61
2022/11/14 02:12:26;;;;;;;9.75;7.50;;;;;;;18.20;49.60;101530.53;5082572;28;20028;-62
2022/11/14 02:14:54;;;;;;;8.05;6.65;;;;;;;18.19;49.67;101528.84;5064891;28;20028;-61
2022/11/14 02:17:20;;;;;;;7.63;6.72;;;;;;;18.19;49.88;101528.84;5064272;28;20540;-61
2022/11/14 02:20:10;;;;;;;7.43;6.25;;;;;;;18.19;49.64;101528.00;5086607;28;20040;-61
2022/11/14 02:22:37;;;;;;;9.10;6.75;;;;;;;18.18;49.93;101520.91;5085637;28;20039;-61
2022/11/14 02:25:02;;;;;;;8.63;6.80;;;;;;;18.17;49.90;101519.22;5086421;28;20028;-61
2022/11/14 02:27:29;;;;;;;9.10;7.20;;;;;;;17.11;49.63;101343.81;5086111;28;20035;-60
2022/11/14 02:30:02;;;;;;;8.35;7.45;;;;;;;18.16;49.88;101506.75;5068510;28;20025;-61
2022/11/14 02:32:27;;;;;;;9.23;7.47;;;;;;;18.14;49.76;101506.09;5086251;28;20040;-60
2022/11/14 02:34:53;;;;;;;9.18;7.03;;;;;;;18.02;49.71;101489.28;5086246;28;20063;-60
2022/11/14 02:37:18;;;;;;;8.68;7.07;;;;;;;18.14;49.57;101506.09;5085903;28;20107;-60
2022/11/14 02:39:43;;;;;;;9.02;7.18;;;;;;;18.13;49.38;101504.38;5086628;28;20059;-61
2022/11/14 02:42:08;;;;;;;7.93;7.05;;;;;;;18.13;49.41;101505.22;5085490;28;20036;-61
2022/11/14 02:44:34;;;;;;;8.57;7.00;;;;;;;17.97;49.45;101478.97;5086246;28;20024;-61
2022/11/14 02:46:59;;;;;;;9.02;7.45;;;;;;;18.12;49.58;101494.59;5085671;28;20512;-61
2022/11/14 02:49:24;;;;;;;8.27;7.43;;;;;;;18.02;49.61;101475.81;5086442;28;20043;-61
2022/11/14 02:51:49;;;;;;;8.13;6.30;;;;;;;18.10;49.70;101483.16;5085721;28;20032;-60
2022/11/14 02:54:15;;;;;;;8.10;7.10;;;;;;;18.10;49.66;101483.16;5086003;28;20083;-61
2022/11/14 02:56:40;;;;;;;8.45;6.95;;;;;;;18.08;49.73;101480.59;5085567;28;20032;-61
2022/11/14 02:59:05;;;;;;;8.70;7.72;;;;;;;18.09;49.54;101473.38;5084509;28;20021;-61
2022/11/14 03:01:30;;;;;;;8.23;6.95;;;;;;;18.09;49.39;101478.75;5085274;28;20103;-61
2022/11/14 03:03:56;;;;;;;8.18;7.10;;;;;;;18.08;49.39;101474.38;5083644;28;20534;-61
2022/11/14 03:06:21;;;;;;;8.18;6.93;;;;;;;18.07;49.55;101470.00;5085539;28;20032;-61
2022/11/14 03:08:46;;;;;;;8.02;6.63;;;;;;;18.06;49.67;101479.06;5085583;28;20034;-61
2022/11/14 03:11:11;;;;;;;8.18;6.78;;;;;;;18.05;49.76;101471.97;5085661;28;20032;-61
2022/11/14 03:13:37;;;;;;;7.50;6.55;;;;;;;18.04;49.97;101487.28;5093389;28;20028;-61
2022/11/14 03:16:10;;;;;;;8.73;6.50;;;;;;;18.02;49.69;101472.28;5105639;28;20043;-61
2022/11/14 03:18:35;;;;;;;7.50;6.45;;;;;;;18.04;49.70;101473.81;5105730;28;20023;-62
2022/11/14 03:21:13;;;;;;;8.23;6.97;;;;;;;18.03;49.80;101476.66;5105513;28;20072;-61
2022/11/14 03:23:39;;;;;;;7.72;6.50;;;;;;;18.01;49.56;101476.81;5087533;28;20020;-61
2022/11/14 03:26:06;;;;;;;7.63;6.65;;;;;;;18.01;49.45;101474.13;5105792;28;20054;-62
2022/11/14 03:28:32;;;;;;;7.10;5.90;;;;;;;18.01;49.84;101470.56;5105558;28;20020;-61
2022/11/14 03:30:57;;;;;;;8.82;7.10;;;;;;;18.01;49.50;101475.94;5096106;28;20032;-61
2022/11/14 03:33:23;;;;;;;8.40;6.78;;;;;;;17.99;49.53;101462.66;5085336;28;20362;-62
2022/11/14 03:35:49;;;;;;;7.38;6.35;;;;;;;17.91;49.57;101463.41;5085104;28;20052;-60
2022/11/14 03:38:15;;;;;;;7.55;6.75;;;;;;;17.98;49.47;101463.66;5085247;28;20048;-61
2022/11/14 03:40:40;;;;;;;8.30;7.00;;;;;;;17.98;49.73;101458.28;5085345;28;20024;-62
2022/11/14 03:43:05;;;;;;;6.78;5.70;;;;;;;17.94;49.68;101455.03;5084752;28;20032;-61
2022/11/14 03:45:31;;;;;;;7.38;6.32;;;;;;;17.97;49.70;101453.91;5085013;28;20031;-61
2022/11/14 03:47:56;;;;;;;9.35;6.82;;;;;;;17.97;49.59;101453.91;5084759;28;20489;-61
2022/11/14 03:50:21;;;;;;;7.60;6.35;;;;;;;17.84;49.29;101426.47;5084596;28;20063;-59
2022/11/14 03:52:50;;;;;;;7.82;6.30;;;;;;;17.89;49.60;101429.59;5084655;28;20021;-61
2022/11/14 03:55:15;;;;;;;7.25;5.95;;;;;;;17.94;49.76;101438.06;5084867;28;20440;-61
2022/11/14 03:57:40;;;;;;;8.35;6.35;;;;;;;17.79;49.63;101412.63;5084257;28;20050;-61
2022/11/14 04:00:07;;;;;;;7.30;6.10;;;;;;;17.94;49.67;101428.13;5084481;28;20120;-62
2022/11/14 04:02:32;;;;;;;7.88;6.20;;;;;;;17.66;49.41;101386.88;5084080;28;20024;-62
2022/11/14 04:04:57;;;;;;;7.38;6.25;;;;;;;17.90;49.71;101420.50;5084448;28;20031;-61
2022/11/14 04:07:22;;;;;;;8.25;6.20;;;;;;;17.90;49.21;101426.75;5084238;28;20029;-62
2022/11/14 04:09:48;;;;;;;8.52;6.85;;;;;;;17.92;49.70;101419.34;5084351;28;20028;-62
2022/11/14 04:12:13;;;;;;;7.05;5.80;;;;;;;17.92;49.47;101413.97;5083963;28;20025;-61
2022/11/14 04:14:38;;;;;;;7.40;5.63;;;;;;;17.91;49.43;101412.28;5101247;28;20039;-61
2022/11/14 04:17:03;;;;;;;8.02;6.43;;;;;;;17.89;49.55;101408.06;5103937;28;20032;-60
2022/11/14 04:19:29;;;;;;;7.95;6.38;;;;;;;17.90;49.37;101412.44;5104783;28;20789;-62
2022/11/14 04:21:54;;;;;;;6.55;5.95;;;;;;;17.91;49.44;101411.44;5103698;28;20035;-60
2022/11/14 04:24:19;;;;;;;7.97;6.45;;;;;;;17.89;49.33;101414.28;5104561;28;20052;-62
2022/11/14 04:26:44;;;;;;;8.18;6.53;;;;;;;17.87;49.53;101407.34;5103828;28;20031;-62
2022/11/14 04:29:10;;;;;;;7.20;6.50;;;;;;;17.89;49.44;101414.28;5104580;28;20020;-62
2022/11/14 04:31:35;;;;;;;9.07;6.68;;;;;;;17.88;49.30;101409.91;5092372;28;20028;-61
2022/11/14 04:34:00;;;;;;;6.85;5.95;;;;;;;17.87;49.25;101399.28;5084034;28;20024;-62
2022/11/14 04:36:25;;;;;;;6.97;6.07;;;;;;;17.89;49.49;101402.69;5083481;28;20110;-62
2022/11/14 04:38:51;;;;;;;7.53;5.85;;;;;;;17.86;49.46;101393.06;5083809;28;20084;-62
2022/11/14 04:41:16;;;;;;;7.18;6.13;;;;;;;17.87;49.31;101399.28;5083449;28;20064;-62
2022/11/14 04:43:41;;;;;;;7.05;6.10;;;;;;;17.88;49.13;101395.59;5082053;28;20028;-62
2022/11/14 04:46:06;;;;;;;7.68;6.15;;;;;;;17.87;49.21;101405.50;5081173;28;20027;-62
2022/11/14 04:48:32;;;;;;;7.15;5.72;;;;;;;17.87;49.08;101402.81;5083612;28;20025;-62
2022/11/14 04:50:57;;;;;;;7.88;5.70;;;;;;;17.84;49.19;101396.88;5083092;28;20522;-62
2022/11/14 04:53:22;;;;;;;7.10;6.03;;;;;;;17.86;49.42;101408.34;5083617;28;20134;-62
2022/11/14 04:55:47;;;;;;;6.75;5.93;;;;;;;17.87;49.21;101407.34;5083602;28;20028;-61
2022/11/14 04:58:13;;;;;;;7.65;6.13;;;;;;;17.82;49.41;101390.81;5083011;28;20066;-62
2022/11/14 05:00:38;;;;;;;7.43;5.85;;;;;;;17.85;49.39;101401.28;5083568;28;20036;-62
2022/11/14 05:03:03;;;;;;;7.70;6.50;;;;;;;17.86;49.40;101402.97;5083343;28;20468;-62
2022/11/14 05:05:28;;;;;;;9.20;6.80;;;;;;;17.83;49.43;101392.50;5083595;28;20020;-62
2022/11/14 05:07:54;;;;;;;6.82;5.90;;;;;;;17.80;48.98;101379.34;5083087;28;20035;-60
2022/11/14 05:10:19;;;;;;;8.95;6.28;;;;;;;17.86;49.28;101393.06;5082390;28;20029;-61
2022/11/14 05:12:44;;;;;;;8.57;6.47;;;;;;;17.86;49.34;101390.38;5083027;28;20049;-61
2022/11/14 05:15:09;;;;;;;6.72;6.05;;;;;;;17.87;49.07;101392.06;5084016;28;20022;-62
2022/11/14 05:17:35;;;;;;;6.97;5.90;;;;;;;17.85;49.36;101382.47;5082329;28;20087;-61
2022/11/14 05:20:00;;;;;;;8.48;5.95;;;;;;;17.85;49.36;101383.31;5082917;28;20053;-61
2022/11/14 05:22:25;;;;;;;7.18;6.05;;;;;;;17.87;49.14;101383.16;5080781;28;20028;-61
2022/11/14 05:24:50;;;;;;;7.53;6.00;;;;;;;17.86;48.95;101370.69;5083211;28;20031;-61
2022/11/14 05:27:16;;;;;;;7.28;6.20;;;;;;;17.84;49.26;101372.69;5082729;28;20059;-61
2022/11/14 05:29:41;;;;;;;6.90;5.95;;;;;;;17.87;49.23;101372.38;5083459;28;20035;-62
2022/11/14 05:32:06;;;;;;;6.72;5.72;;;;;;;17.88;49.17;101368.69;5082603;28;20028;-61
2022/11/14 05:34:31;;;;;;;6.95;6.05;;;;;;;17.79;49.37;101350.78;5082757;28;20031;-61
2022/11/14 05:36:57;;;;;;;7.75;6.07;;;;;;;17.72;49.44;101337.06;5082380;28;20052;-61
2022/11/14 05:39:22;;;;;;;7.05;5.55;;;;;;;17.89;49.45;101359.66;5082845;28;20028;-61
2022/11/14 05:41:47;;;;;;;7.20;6.00;;;;;;;17.89;49.29;101359.66;5081793;28;20029;-61
2022/11/14 05:44:12;;;;;;;7.40;6.10;;;;;;;17.89;49.24;101362.34;5082766;28;20076;-61
2022/11/14 05:46:38;;;;;;;7.95;6.18;;;;;;;17.90;49.36;101364.03;5082276;28;20032;-61
2022/11/14 05:49:03;;;;;;;8.05;6.60;;;;;;;17.88;49.73;101356.13;5082672;28;20080;-61
2022/11/14 05:51:28;;;;;;;7.63;6.15;;;;;;;17.88;49.23;101355.25;5082187;28;20028;-62
2022/11/14 05:53:54;;;;;;;7.30;6.40;;;;;;;17.82;49.64;101353.16;5085458;28;20028;-62
2022/11/14 05:56:19;;;;;;;7.75;5.78;;;;;;;17.89;49.66;101356.97;5086791;28;20032;-61
2022/11/14 05:58:44;;;;;;;7.53;6.25;;;;;;;17.92;49.38;101362.84;5086019;28;20528;-61
2022/11/14 06:01:15;;;;;;;7.72;6.43;;;;;;;17.85;49.65;101347.50;5068640;28;20047;-61
2022/11/14 06:03:42;;;;;;;8.93;6.20;;;;;;;17.92;49.67;101357.47;5086375;28;20074;-62
2022/11/14 06:06:11;;;;;;;7.35;6.13;;;;;;;17.92;49.46;101357.47;5085647;28;20123;-61
2022/11/14 06:08:36;;;;;;;7.53;6.05;;;;;;;17.84;49.62;101335.88;5083599;28;20051;-61
2022/11/14 06:11:06;;;;;;;8.20;6.63;;;;;;;17.85;49.46;101334.88;5085104;28;20093;-61
2022/11/14 06:13:32;;;;;;;7.13;6.05;;;;;;;17.86;49.74;101339.25;5083936;28;20028;-61
2022/11/14 06:16:01;;;;;;;6.68;5.97;;;;;;;17.92;49.58;101352.09;5086043;28;20020;-61
2022/11/14 06:18:27;;;;;;;7.97;5.72;;;;;;;17.94;49.39;101346.59;5085816;28;20467;-61
2022/11/14 06:20:53;;;;;;;7.00;6.10;;;;;;;17.89;49.78;101347.03;5085755;28;20566;-62
2022/11/14 06:23:18;;;;;;;8.38;6.57;;;;;;;17.94;49.94;101350.13;5080610;28;20020;-62
2022/11/14 06:25:43;;;;;;;7.45;6.18;;;;;;;17.95;49.60;101348.28;5086377;28;20067;-61
2022/11/14 06:28:08;;;;;;;7.45;6.30;;;;;;;17.96;49.90;101347.25;5085179;28;20047;-61
2022/11/14 06:30:34;;;;;;;6.22;5.63;;;;;;;17.95;49.74;101348.28;5086256;28;20078;-61
2022/11/14 06:32:59;;;;;;;8.07;6.40;;;;;;;17.95;49.92;101354.50;5085558;28;20025;-61
2022/11/14 06:35:25;;;;;;;7.75;5.88;;;;;;;17.91;49.68;101349.56;5086094;28;20013;-61
2022/11/14 06:37:51;;;;;;;7.40;6.15;;;;;;;17.70;49.65;101312.16;5067568;28;20067;-62
2022/11/14 06:40:16;;;;;;;8.18;6.10;;;;;;;17.96;49.62;101358.88;5085875;28;20059;-61
2022/11/14 06:42:41;;;;;;;7.70;6.28;;;;;;;17.96;50.05;101358.88;5067333;28;20020;-62
2022/11/14 06:45:07;;;;;;;7.18;6.30;;;;;;;17.97;49.84;101359.75;5085412;28;20027;-62
2022/11/14 06:47:32;;;;;;;7.38;6.20;;;;;;;17.95;49.88;101351.81;5084909;28;20032;-61
2022/11/14 06:49:57;;;;;;;7.78;6.18;;;;;;;17.90;50.05;101343.34;5085947;28;20020;-61
2022/11/14 06:52:24;;;;;;;6.95;5.97;;;;;;;17.97;49.99;101354.34;5084750;28;20021;-62
2022/11/14 06:54:50;;;;;;;7.38;6.55;;;;;;;17.97;49.81;101357.88;5085673;28;20564;-61
2022/11/14 06:57:15;;;;;;;7.38;6.18;;;;;;;17.98;49.87;101364.97;5083505;28;20023;-61
2022/11/14 06:59:40;;;;;;;7.75;6.28;;;;;;;17.99;50.45;101353.19;5085730;28;20496;-61
2022/11/14 07:02:05;;;;;;;6.82;6.00;;;;;;;17.98;49.84;101356.88;5085740;28;20400;-60
2022/11/14 07:04:30;;;;;;;7.45;6.68;;;;;;;17.98;49.76;101356.03;5083485;28;20063;-62
2022/11/14 07:06:56;;;;;;;6.95;6.00;;;;;;;17.98;50.12;101353.34;5084139;28;20100;-62
2022/11/14 07:09:21;;;;;;;7.82;6.45;;;;;;;17.91;50.15;101350.41;5080909;28;20059;-61
2022/11/14 07:11:46;;;;;;;9.38;6.45;;;;;;;17.95;50.07;101357.19;5086355;28;20025;-59
2022/11/14 07:14:12;;;;;;;9.73;6.53;;;;;;;17.72;50.29;101320.94;5083706;28;20210;-61
2022/11/14 07:16:37;;;;;;;9.20;6.70;;;;;;;17.95;50.38;101359.03;5084894;28;20084;-61
2022/11/14 07:19:04;;;;;;;7.30;6.13;;;;;;;17.96;50.33;101360.72;5085022;28;20139;-64
2022/11/14 07:21:30;;;;;;;8.57;6.50;;;;;;;17.95;50.46;101356.34;5068597;28;20048;-62
2022/11/14 07:23:56;;;;;;;6.47;5.63;;;;;;;17.97;50.53;101351.66;5079216;28;20120;-60
2022/11/14 07:26:22;;;;;;;7.43;6.30;;;;;;;17.99;50.17;101353.19;5085987;28;20040;-61
2022/11/14 07:28:48;;;;;;;7.68;6.35;;;;;;;18.02;50.27;101356.59;5070039;28;20032;-62
2022/11/14 07:31:15;;;;;;;7.22;6.28;;;;;;;18.01;50.24;101354.88;5085282;28;20052;-62
2022/11/14 07:33:41;;;;;;;8.73;6.82;;;;;;;18.06;50.40;101364.22;5084537;28;20040;-63
2022/11/14 07:36:07;;;;;;;8.75;6.53;;;;;;;18.08;49.78;101364.88;5084760;28;20021;-61
2022/11/14 07:38:34;;;;;;;7.55;6.28;;;;;;;18.11;49.98;101363.75;5084368;28;20039;-61
2022/11/14 07:41:04;;;;;;;7.28;5.88;;;;;;;18.11;49.89;101361.91;5084673;28;20028;-61
2022/11/14 07:43:29;;;;;;;6.93;5.82;;;;;;;18.13;50.14;101364.44;5084047;28;20028;-61
2022/11/14 07:46:03;;;;;;;8.65;6.78;;;;;;;18.13;50.18;101354.50;5084312;28;20036;-61
2022/11/14 07:48:29;;;;;;;9.18;5.60;;;;;;;18.16;49.95;101347.97;5084191;28;20020;-61
2022/11/14 07:51:02;;;;;;;7.32;6.15;;;;;;;18.18;50.16;101348.66;5084234;28;20086;-62
2022/11/14 07:53:28;;;;;;;8.02;6.25;;;;;;;18.19;50.03;101337.75;5066174;28;20092;-62
2022/11/14 07:55:54;;;;;;;7.82;6.82;;;;;;;18.21;49.74;101346.50;5084410;28;20067;-60
2022/11/14 07:58:19;;;;;;;8.98;6.30;;;;;;;18.23;49.68;101347.22;5081569;28;20074;-61
2022/11/14 08:00:44;;;;;;;7.10;6.22;;;;;;;18.25;49.55;101347.06;5068231;28;20267;-61
2022/11/14 08:03:09;;;;;;;8.02;6.70;;;;;;;18.27;49.62;101346.94;5094746;28;20032;-61
2022/11/14 08:05:35;;;;;;;6.93;6.22;;;;;;;18.26;49.50;101335.28;5083926;28;20457;-61
2022/11/14 08:08:00;;;;;;;8.25;6.88;;;;;;;18.30;49.39;101335.81;5083872;28;20052;-59
2022/11/14 08:10:25;;;;;;;7.10;6.40;;;;;;;18.32;49.64;101337.38;5084215;28;20024;-62
2022/11/14 08:13:01;;;;;;;6.35;5.50;;;;;;;18.35;49.33;101329.00;5096982;28;20033;-62
2022/11/14 08:15:27;;;;;;;7.88;6.15;;;;;;;18.30;49.37;101317.81;5092378;28;20067;-62
2022/11/14 08:17:57;;;;;;;6.90;6.20;;;;;;;18.41;49.12;101338.28;5083794;28;20087;-62
2022/11/14 08:20:22;;;;;;;8.88;6.60;;;;;;;18.46;49.10;101330.59;5083020;28;20045;-63
2022/11/14 08:22:47;;;;;;;8.80;7.15;;;;;;;18.49;49.11;101327.59;5078100;28;20124;-62
2022/11/14 08:25:12;;;;;;;9.10;6.55;;;;;;;18.52;49.04;101324.59;5072604;28;20021;-60
2022/11/14 08:27:38;;;;;;;7.03;6.32;;;;;;;18.54;48.82;101324.44;5070878;28;20029;-62
2022/11/14 08:30:03;;;;;;;7.30;6.20;;;;;;;18.52;48.92;101319.22;5079614;28;20055;-62
2022/11/14 08:32:28;;;;;;;8.13;6.63;;;;;;;18.56;49.10;101312.50;5083142;28;20116;-62
2022/11/14 08:34:54;;;;;;;8.48;6.72;;;;;;;18.59;49.05;101311.34;5065643;28;20031;-62
2022/11/14 08:37:19;;;;;;;6.88;6.13;;;;;;;18.62;48.83;101317.25;5083053;28;20039;-60
2022/11/14 08:39:44;;;;;;;7.72;6.60;;;;;;;18.64;48.84;101312.56;5072378;28;20020;-60
2022/11/14 08:42:09;;;;;;;9.20;6.25;;;;;;;18.66;48.58;101318.66;5066187;28;20028;-59
2022/11/14 08:44:35;;;;;;;7.78;6.10;;;;;;;18.67;48.67;101314.94;5083300;28;20023;-60
2022/11/14 08:47:01;;;;;;;6.78;6.03;;;;;;;18.67;48.49;101311.41;5082685;28;20032;-60
2022/11/14 08:49:26;;;;;;;7.20;6.43;;;;;;;18.45;48.48;101275.91;5083547;28;20029;-60
2022/11/14 08:51:52;;;;;;;6.93;5.82;;;;;;;18.71;48.23;101316.34;5080848;28;20024;-60
2022/11/14 08:54:18;;;;;;;7.05;5.72;;;;;;;18.73;48.37;101310.78;5083613;28;20127;-60
2022/11/14 08:56:43;;;;;;;7.10;6.20;;;;;;;18.75;48.09;101310.66;5083081;28;20039;-60
2022/11/14 08:59:08;;;;;;;8.52;6.05;;;;;;;18.76;48.16;101307.78;5082836;28;20028;-61
2022/11/14 09:01:33;;;;;;;8.25;6.63;;;;;;;18.78;48.18;101316.56;5082733;28;20035;-60
2022/11/14 09:03:59;;;;;;;8.45;6.10;;;;;;;18.75;48.46;101306.09;5082864;28;20016;-62
2022/11/14 09:06:25;;;;;;;7.57;6.10;;;;;;;18.81;48.11;101304.63;5081530;28;20040;-61
2022/11/14 09:08:50;;;;;;;8.07;6.05;;;;;;;18.79;48.58;101299.41;5082358;28;20034;-61
2022/11/14 09:11:15;;;;;;;6.60;5.90;;;;;;;18.56;48.56;101264.00;5084747;28;20031;-62
2022/11/14 09:13:40;;;;;;;7.65;6.03;;;;;;;18.84;48.55;101304.31;5082006;28;20488;-58
2022/11/14 09:16:06;;;;;;;8.18;6.00;;;;;;;18.85;48.35;101297.91;5081593;28;20032;-60
2022/11/14 09:18:31;;;;;;;7.20;5.82;;;;;;;18.86;48.12;101292.38;5080953;28;20024;-60
2022/11/14 09:21:01;;;;;;;7.88;5.65;;;;;;;18.87;48.60;101296.75;5078966;28;20044;-61
2022/11/14 09:23:26;;;;;;;6.93;5.93;;;;;;;18.87;48.24;101291.38;5079913;28;20052;-61
2022/11/14 09:25:53;;;;;;;7.82;6.30;;;;;;;18.87;47.98;101288.69;5081740;28;20032;-59
2022/11/14 09:28:19;;;;;;;8.35;6.78;;;;;;;18.88;47.46;101289.53;5079482;28;20157;-57
2022/11/14 09:30:44;;;;;;;7.57;6.57;;;;;;;18.84;47.79;101280.91;5082703;28;20128;-60
2022/11/14 09:33:09;;;;;;;9.32;6.13;;;;;;;18.87;47.32;101286.00;5081680;28;20035;-60
2022/11/14 09:35:36;;;;;;;7.22;5.95;;;;;;;18.89;47.87;101291.22;5082567;28;20024;-60
2022/11/14 09:38:07;;;;;;;7.60;6.05;;;;;;;18.89;47.73;101296.59;5082076;28;20020;-60
2022/11/14 09:40:59;;;;;;;7.55;6.30;;;;;;;18.88;47.78;101298.44;5081640;28;20025;-58
2022/11/14 09:43:33;;;;;;;6.60;5.82;;;;;;;18.89;48.11;101288.50;5063300;28;20020;-60
2022/11/14 09:46:00;;;;;;;8.27;5.90;;;;;;;18.86;47.90;101284.31;5064924;28;20091;-60
2022/11/14 09:48:28;;;;;;;9.13;6.55;;;;;;;18.88;48.15;101284.97;5064542;28;20058;-60
2022/11/14 09:51:10;;;;;;;6.60;5.80;;;;;;;18.91;48.08;101291.91;5064819;28;20021;-59
2022/11/14 09:53:43;;;;;;;6.65;5.55;;;;;;;18.82;48.35;101272.16;5064435;28;20028;-60
2022/11/14 09:56:14;;;;;;;7.82;6.18;;;;;;;18.91;48.14;101281.13;5061878;28;20039;-60
2022/11/14 09:58:39;;;;;;;7.57;5.70;;;;;;;18.87;48.55;101274.38;5060999;28;20024;-62
2022/11/14 10:01:21;;;;;;;6.82;5.95;;;;;;;18.92;48.53;101277.44;5096612;28;20077;-61
2022/11/14 10:03:54;;;;;;;6.32;5.72;;;;;;;18.93;48.47;101276.41;5072439;28;20032;-61
2022/11/14 10:06:27;;;;;;;6.65;5.93;;;;;;;18.95;48.71;101269.03;5078461;28;20021;-60
2022/11/14 10:09:15;;;;;;;7.95;6.65;;;;;;;18.97;48.04;101265.16;5067076;28;20035;-61
2022/11/14 10:11:49;;;;;;;7.70;5.63;;;;;;;18.97;47.85;101273.22;5081806;28;20063;-61
2022/11/14 10:14:40;;;;;;;8.93;6.70;;;;;;;18.98;47.93;101269.53;5063594;28;20311;-61
2022/11/14 10:17:25;;;;;;;7.10;6.13;;;;;;;18.99;48.01;101265.00;5068201;28;20140;-60
2022/11/14 10:20:03;;;;;;;7.28;6.03;;;;;;;19.01;48.47;101264.84;5082521;28;20040;-62
2022/11/14 10:22:51;;;;;;;6.22;5.47;;;;;;;19.02;48.10;101256.59;5063972;28;20031;-61
2022/11/14 10:25:54;;;;;;;6.85;5.75;;;;;;;19.02;48.16;101259.28;5082385;28;20039;-62
2022/11/14 10:28:50;;;;;;;6.13;5.18;;;;;;;19.04;48.21;101253.75;5081525;28;20040;-59
2022/11/14 10:31:34;;;;;;;9.00;5.30;;;;;;;19.04;48.33;101248.34;5070183;28;20070;-61
2022/11/14 10:34:14;;;;;;;6.97;5.10;;;;;;;19.05;48.34;101250.88;5063850;28;20021;-61
2022/11/14 10:36:59;;;;;;;7.65;5.95;;;;;;;19.06;48.40;101247.16;5081642;28;20080;-62
2022/11/14 10:39:30;;;;;;;5.97;4.97;;;;;;;19.07;48.25;101245.31;5084183;28;20508;-62
2022/11/14 10:41:58;;;;;;;7.38;5.53;;;;;;;19.07;48.45;101235.38;5084989;28;20040;-60
2022/11/14 10:44:29;;;;;;;6.75;5.70;;;;;;;19.08;48.70;101220.91;5051189;28;20531;-61
2022/11/14 10:46:59;;;;;;;5.57;4.97;;;;;;;19.07;48.42;101218.38;5067339;28;20074;-61
2022/11/14 10:49:25;;;;;;;5.75;5.15;;;;;;;19.10;48.34;101218.06;5086042;28;20016;-62
2022/11/14 10:51:56;;;;;;;7.15;5.22;;;;;;;18.98;48.68;101199.47;5084825;28;20040;-61
2022/11/14 10:54:25;;;;;;;5.78;5.18;;;;;;;18.96;48.27;101201.50;5067631;28;20031;-58
2022/11/14 10:56:52;;;;;;;7.45;5.75;;;;;;;19.10;48.21;101215.34;5085260;28;20032;-58
2022/11/14 10:59:18;;;;;;;6.78;5.75;;;;;;;19.12;48.03;101216.06;5085823;28;20021;-62
2022/11/14 11:01:54;;;;;;;8.38;5.65;;;;;;;19.11;48.31;101206.25;5085115;28;20114;-62
2022/11/14 11:04:33;;;;;;;7.20;5.55;;;;;;;19.12;48.02;101202.59;5084040;28;20033;-59
2022/11/14 11:07:07;;;;;;;6.47;5.18;;;;;;;19.14;48.30;101197.84;5076140;28;20030;-59
2022/11/14 11:12:21;;;;;;;7.30;5.53;;;;;;;19.10;48.10;101188.41;5084399;28;20066;-61
2022/11/14 11:15:17;;;;;;;6.47;5.73;;;;;;;19.14;48.01;101196.00;5064918;28;20039;-62
2022/11/14 11:17:55;;;;;;;7.13;5.68;;;;;;;19.15;47.86;101186.06;5085050;28;20040;-63
2022/11/14 11:20:33;;;;;;;6.30;5.18;;;;;;;19.14;48.13;101187.06;5085153;28;20056;-61
2022/11/14 11:23:03;;;;;;;6.40;5.63;;;;;;;19.16;48.27;101187.78;5066766;28;20064;-63
2022/11/14 11:25:29;;;;;;;5.63;5.00;;;;;;;19.16;48.18;101183.22;5085358;28;20021;-62
2022/11/14 11:28:12;;;;;;;5.63;5.00;;;;;;;19.17;48.60;101179.50;5084699;28;20029;-61